Terminal Aerodrome Forecast
Issued by NWS Raleigh/Durham, NC

Home | Current Version | Previous Version | Text Only | Print | Product List | Glossary On
Versions: 1 2 3 4 5 6 7 8 9 10 11 12 13
000
FTUS42 KRAH 261303 AAA
TAFGSO
TAF AMD
KGSO 261303Z 2613/2712 23006KT P6SM VCSH BKN070 BKN150
     FM261600 21006KT P6SM SCT080
     FM262100 24004KT P6SM VCSH SCT060=

USA.gov is the U.S. government's official web portal to all federal, state and local government web resources and services.